Herne Bay, United Kingdom
Current Conditions -  °F | °C
As of 4:20 PM on Wednesday 28 Jan 2015 (Local Time) from EGMC Reporting Station
Few Clouds Few Clouds  
Wind Chill: 35°   Ceiling: Unl
Heat Index: 43°   Visibility: 6mi
Dew Point: 25°   Wind: 17mph
Humidity: 49%   Direction: 250°WSW
Pressure: 29.53"   Gusts: NA
Location:  51.37°N, 1.13°E
Report Text: EGMC 281620Z 25015KT 9999 FEW030 06/M04 Q1000
Loading
Personal Weather Stations






























Interactive Weather Map New forecast layout! Learn more

10-Day Weather Forecast

Advertisements
Track Severe Weather on mobile